createdAt,value
2019-04-30T00:00:06.343Z,30.65
2019-04-30T00:02:40.015Z,29.02
2019-04-30T00:05:09.965Z,30.40
2019-04-30T00:07:39.662Z,31.45
2019-04-30T00:10:08.353Z,29.60
2019-04-30T00:12:39.494Z,28.20
2019-04-30T00:15:11.043Z,29.48
2019-04-30T00:17:37.491Z,28.87
2019-04-30T00:20:07.072Z,27.65
2019-04-30T00:22:39.333Z,29.92
2019-04-30T00:25:07.334Z,30.85
2019-04-30T00:27:35.855Z,29.00
2019-04-30T00:30:09.002Z,30.65
2019-04-30T00:32:43.509Z,30.23
2019-04-30T00:35:11.881Z,30.65
2019-04-30T00:37:38.054Z,30.77
2019-04-30T00:40:08.540Z,31.07
2019-04-30T00:42:37.064Z,30.88
2019-04-30T00:45:09.869Z,31.93
2019-04-30T00:47:39.575Z,31.07
2019-04-30T00:50:09.368Z,31.93
2019-04-30T00:52:37.829Z,29.15
2019-04-30T00:55:09.224Z,29.52
2019-04-30T00:57:43.768Z,29.63
2019-04-30T01:00:12.049Z,27.75
2019-04-30T01:02:48.383Z,29.75
2019-04-30T01:05:21.361Z,30.35
2019-04-30T01:07:51.837Z,31.40
2019-04-30T01:10:24.802Z,33.48
2019-04-30T01:12:51.148Z,30.23
2019-04-30T01:15:19.616Z,29.67
2019-04-30T01:17:50.951Z,29.80
2019-04-30T01:20:19.524Z,32.17
2019-04-30T01:22:48.715Z,33.38
2019-04-30T01:25:18.678Z,30.80
2019-04-30T01:27:49.144Z,31.27
2019-04-30T01:30:22.580Z,34.30
2019-04-30T01:32:56.878Z,32.63
2019-04-30T01:35:23.857Z,33.45
2019-04-30T01:37:52.742Z,31.12
2019-04-30T01:40:21.487Z,31.52
2019-04-30T01:42:51.640Z,33.15
2019-04-30T01:45:23.199Z,33.70
2019-04-30T01:47:50.729Z,32.48
2019-04-30T01:50:19.457Z,32.35
2019-04-30T01:52:54.341Z,33.15
2019-04-30T01:55:31.512Z,30.30
2019-04-30T01:58:08.721Z,30.00
2019-04-30T02:00:39.198Z,29.37
2019-04-30T02:03:08.755Z,31.02
2019-04-30T02:05:38.602Z,27.93
2019-04-30T02:08:08.470Z,28.27
2019-04-30T02:10:37.204Z,28.00
2019-04-30T02:13:05.686Z,31.30
2019-04-30T02:15:34.155Z,30.27
2019-04-30T02:18:02.604Z,32.83
2019-04-30T02:20:31.092Z,30.43
2019-04-30T02:22:59.544Z,30.62
2019-04-30T02:25:29.584Z,34.05
2019-04-30T02:28:00.633Z,36.13
2019-04-30T02:30:30.981Z,32.13
2019-04-30T02:33:00.660Z,31.10
2019-04-30T02:35:49.955Z,33.13
2019-04-30T02:38:30.058Z,32.50
2019-04-30T02:40:59.721Z,31.07
2019-04-30T02:43:31.639Z,34.20
2019-04-30T02:46:01.553Z,34.70
2019-04-30T02:48:31.765Z,30.27
2019-04-30T02:51:02.978Z,33.60
2019-04-30T02:53:52.995Z,31.50
2019-04-30T02:56:26.342Z,32.45
2019-04-30T02:58:53.393Z,31.37
2019-04-30T03:01:22.114Z,32.13
2019-04-30T03:03:50.658Z,34.48
2019-04-30T03:06:23.167Z,33.95
2019-04-30T03:08:51.034Z,31.15
2019-04-30T03:11:20.628Z,33.88
2019-04-30T03:13:49.903Z,33.33
2019-04-30T03:16:20.694Z,33.28
2019-04-30T03:18:59.561Z,31.93
2019-04-30T03:21:45.148Z,34.43
2019-04-30T03:24:13.695Z,34.95
2019-04-30T03:26:42.294Z,36.68
2019-04-30T03:29:11.625Z,33.35
2019-04-30T03:31:44.137Z,36.00
2019-04-30T03:34:17.101Z,34.95
2019-04-30T03:36:40.964Z,35.38
2019-04-30T03:39:10.774Z,37.10
2019-04-30T03:41:41.436Z,35.55
2019-04-30T03:44:21.071Z,33.85
2019-04-30T03:46:40.607Z,36.28
2019-04-30T03:49:12.543Z,36.48
2019-04-30T03:51:40.437Z,33.08
2019-04-30T03:54:10.313Z,31.93
2019-04-30T03:56:40.290Z,35.08
2019-04-30T03:59:10.826Z,32.42
2019-04-30T04:01:59.542Z,31.52
2019-04-30T04:04:31.716Z,36.30
2019-04-30T04:07:16.835Z,34.10
2019-04-30T04:09:50.100Z,34.20
2019-04-30T04:12:22.442Z,35.98
2019-04-30T04:14:51.328Z,34.48
2019-04-30T04:17:21.501Z,36.95
2019-04-30T04:19:51.204Z,36.63
2019-04-30T04:22:23.521Z,36.80
2019-04-30T04:24:52.010Z,34.95
2019-04-30T04:27:22.389Z,35.55
2019-04-30T04:29:51.444Z,34.48
2019-04-30T04:32:23.937Z,35.38
2019-04-30T04:34:50.864Z,38.55
2019-04-30T04:37:20.361Z,36.58
2019-04-30T04:39:51.433Z,32.23
2019-04-30T04:42:20.008Z,38.15
2019-04-30T04:44:50.103Z,36.00
2019-04-30T04:47:20.300Z,36.00
2019-04-30T04:49:53.283Z,36.15
2019-04-30T04:52:21.632Z,36.17
2019-04-30T04:54:50.795Z,33.65
2019-04-30T04:57:22.680Z,39.23
2019-04-30T04:59:50.358Z,37.53
2019-04-30T05:02:29.751Z,37.60
2019-04-30T05:04:59.964Z,35.78
2019-04-30T05:07:28.866Z,35.33
2019-04-30T05:10:00.594Z,38.58
2019-04-30T05:12:29.746Z,36.20
2019-04-30T05:14:59.759Z,36.90
2019-04-30T05:17:31.692Z,39.40
2019-04-30T05:19:59.498Z,34.55
2019-04-30T05:22:29.390Z,32.45
2019-04-30T05:24:58.878Z,34.00
2019-04-30T05:27:27.916Z,34.33
2019-04-30T05:29:56.389Z,36.08
2019-04-30T05:32:24.866Z,35.58
2019-04-30T05:34:54.908Z,32.38
2019-04-30T05:37:23.397Z,30.02
2019-04-30T05:39:51.952Z,29.45
2019-04-30T05:42:20.456Z,28.55
2019-04-30T05:44:49.740Z,25.80
2019-04-30T05:47:19.627Z,24.80
2019-04-30T05:49:48.936Z,24.40
2019-04-30T05:52:19.682Z,24.10
2019-04-30T05:54:48.733Z,24.30
2019-04-30T05:57:19.540Z,24.98
2019-04-30T05:59:48.732Z,23.87
2019-04-30T06:02:19.345Z,24.52
2019-04-30T06:04:48.897Z,24.27
2019-04-30T06:07:18.931Z,24.40
2019-04-30T06:09:54.185Z,25.02
2019-04-30T06:12:24.399Z,24.75
2019-04-30T06:15:11.731Z,24.95
2019-04-30T06:17:42.264Z,23.85
2019-04-30T06:20:18.273Z,24.23
2019-04-30T06:22:41.580Z,25.08
2019-04-30T06:25:10.819Z,27.65
2019-04-30T06:27:40.085Z,27.13
2019-04-30T06:30:11.972Z,28.32
2019-04-30T06:32:39.672Z,28.83
2019-04-30T06:35:10.125Z,30.00
2019-04-30T06:37:39.091Z,31.12
2019-04-30T06:40:11.424Z,30.05
2019-04-30T06:42:39.608Z,29.90
2019-04-30T06:45:09.200Z,32.40
2019-04-30T06:47:38.920Z,31.93
2019-04-30T06:50:09.681Z,33.05
2019-04-30T06:52:53.980Z,33.55
2019-04-30T06:55:13.102Z,33.25
2019-04-30T06:57:41.564Z,32.58
2019-04-30T07:00:10.251Z,33.70
2019-04-30T07:02:39.369Z,32.73
2019-04-30T07:05:10.133Z,32.60
2019-04-30T07:07:41.754Z,30.82
2019-04-30T07:10:16.959Z,30.92
2019-04-30T07:12:50.167Z,30.08
2019-04-30T07:15:19.682Z,29.30
2019-04-30T07:17:49.136Z,29.72
2019-04-30T07:20:19.139Z,30.32
2019-04-30T07:22:52.328Z,30.20
2019-04-30T07:25:19.515Z,28.80
2019-04-30T07:27:55.096Z,29.10
2019-04-30T07:30:23.563Z,29.00
2019-04-30T07:32:52.033Z,28.50
2019-04-30T07:35:20.788Z,29.42
2019-04-30T07:37:49.891Z,27.58
2019-04-30T07:40:19.095Z,27.77
2019-04-30T07:42:49.216Z,28.85
2019-04-30T07:45:19.405Z,26.25
2019-04-30T07:47:49.494Z,26.48
2019-04-30T07:50:21.042Z,27.85
2019-04-30T07:53:01.733Z,25.30
2019-04-30T07:55:19.642Z,26.90
2019-04-30T07:57:50.563Z,25.92
2019-04-30T08:00:19.361Z,25.08
2019-04-30T08:02:50.509Z,25.37
2019-04-30T08:05:23.847Z,25.15
2019-04-30T08:07:52.513Z,24.20
2019-04-30T08:10:21.110Z,24.20
2019-04-30T08:12:50.700Z,24.27
2019-04-30T08:15:20.013Z,25.10
2019-04-30T08:18:02.222Z,25.32
2019-04-30T08:20:19.654Z,25.17
2019-04-30T08:22:49.369Z,24.72
2019-04-30T08:25:22.021Z,25.12
2019-04-30T08:27:50.564Z,22.82
2019-04-30T08:30:26.203Z,25.23
2019-04-30T08:32:49.972Z,23.77
2019-04-30T08:35:19.694Z,24.45
2019-04-30T08:37:49.706Z,24.98
2019-04-30T08:40:20.594Z,25.90
2019-04-30T08:42:49.707Z,26.27
2019-04-30T08:45:19.763Z,26.62
2019-04-30T08:47:49.315Z,28.75
2019-04-30T08:50:20.108Z,27.98
2019-04-30T08:52:49.843Z,28.25
2019-04-30T08:55:19.701Z,27.15
2019-04-30T08:57:50.053Z,24.72
2019-04-30T09:00:19.532Z,28.67
2019-04-30T09:02:52.068Z,29.00
2019-04-30T09:05:30.473Z,29.02
2019-04-30T09:07:59.806Z,31.55
2019-04-30T09:10:29.414Z,28.35
2019-04-30T09:12:59.735Z,27.80
2019-04-30T09:15:29.056Z,27.17
2019-04-30T09:18:03.115Z,28.38
2019-04-30T09:20:29.941Z,27.40
2019-04-30T09:23:00.466Z,27.98
2019-04-30T09:25:29.001Z,26.75
2019-04-30T09:28:00.774Z,27.10
2019-04-30T09:30:29.912Z,28.52
2019-04-30T09:32:59.529Z,28.27
2019-04-30T09:35:31.848Z,28.30
2019-04-30T09:38:01.357Z,27.80
2019-04-30T09:40:32.318Z,30.10
2019-04-30T09:43:00.431Z,30.45
2019-04-30T09:45:29.200Z,30.37
2019-04-30T09:47:59.649Z,31.48
2019-04-30T09:50:28.944Z,30.72
2019-04-30T09:52:59.792Z,30.10
2019-04-30T09:55:29.027Z,25.97
2019-04-30T09:57:58.844Z,31.68
2019-04-30T10:00:29.508Z,30.48
2019-04-30T10:02:59.925Z,30.37
2019-04-30T10:05:29.267Z,32.25
2019-04-30T10:07:59.401Z,30.12
2019-04-30T10:10:29.864Z,31.85
2019-04-30T10:12:59.302Z,32.58
2019-04-30T10:15:43.196Z,33.42
2019-04-30T10:18:11.976Z,32.10
2019-04-30T10:20:43.284Z,30.97
2019-04-30T10:23:11.903Z,30.70
2019-04-30T10:25:42.075Z,30.92
2019-04-30T10:28:10.650Z,31.70
2019-04-30T10:30:39.800Z,32.00
2019-04-30T10:33:09.969Z,32.45
2019-04-30T10:35:38.773Z,35.00
2019-04-30T10:38:09.700Z,39.75
2019-04-30T10:40:39.033Z,41.15
2019-04-30T10:43:08.840Z,37.85
2019-04-30T10:47:51.190Z,39.25
2019-04-30T10:48:46.067Z,37.53
2019-04-30T10:51:15.030Z,37.05
2019-04-30T10:53:43.605Z,38.30
2019-04-30T10:56:12.182Z,38.42
2019-04-30T10:58:40.796Z,38.17
2019-04-30T11:01:09.677Z,38.55
2019-04-30T11:03:42.987Z,38.15
2019-04-30T11:06:11.892Z,36.95
2019-04-30T11:08:42.261Z,38.33
2019-04-30T11:11:14.303Z,37.45
2019-04-30T11:13:45.373Z,38.10
2019-04-30T11:16:18.746Z,35.73
2019-04-30T11:18:47.427Z,36.50
2019-04-30T11:21:19.732Z,36.53
2019-04-30T11:23:50.171Z,37.83
2019-04-30T11:26:21.865Z,34.48
2019-04-30T11:29:03.757Z,34.08
2019-04-30T11:31:37.285Z,33.80
2019-04-30T11:34:08.072Z,32.42
2019-04-30T11:36:41.021Z,32.55
2019-04-30T11:39:18.682Z,32.20
2019-04-30T11:41:48.827Z,32.78
2019-04-30T11:44:30.321Z,31.82
2019-04-30T11:46:52.486Z,31.33
2019-04-30T11:49:22.756Z,31.93
2019-04-30T11:51:51.398Z,31.15
2019-04-30T11:54:21.788Z,31.48
2019-04-30T11:56:50.566Z,32.23
2019-04-30T11:59:19.636Z,32.98
2019-04-30T12:01:49.658Z,32.13
2019-04-30T12:04:19.461Z,31.42
2019-04-30T12:06:48.758Z,29.98
2019-04-30T12:09:35.363Z,29.85
2019-04-30T12:12:04.263Z,30.20
2019-04-30T12:14:32.898Z,30.80
2019-04-30T12:17:01.584Z,31.05
2019-04-30T12:19:30.236Z,31.90
2019-04-30T12:21:58.825Z,29.87
2019-04-30T12:24:30.212Z,30.52
2019-04-30T12:26:57.776Z,30.12
2019-04-30T12:29:26.316Z,30.77
2019-04-30T12:32:00.294Z,30.15
2019-04-30T12:34:29.858Z,29.57
2019-04-30T12:36:59.656Z,32.13
2019-04-30T12:39:29.988Z,30.95
2019-04-30T12:41:59.233Z,30.57
2019-04-30T12:44:28.828Z,32.03
2019-04-30T12:46:58.645Z,34.63
2019-04-30T12:49:28.824Z,35.30
2019-04-30T12:52:13.945Z,34.50
2019-04-30T12:55:09.415Z,34.73
2019-04-30T12:57:39.487Z,34.33
2019-04-30T13:00:12.093Z,33.95
2019-04-30T13:02:41.001Z,35.08
2019-04-30T13:05:10.340Z,33.65
2019-04-30T13:07:40.111Z,34.73
2019-04-30T13:10:10.331Z,34.25
2019-04-30T13:12:39.647Z,35.63
2019-04-30T13:15:10.372Z,35.52
2019-04-30T13:17:38.837Z,34.80
2019-04-30T13:20:18.091Z,34.83
2019-04-30T13:25:50.799Z,34.67
2019-04-30T13:28:11.680Z,36.08
2019-04-30T13:30:41.701Z,36.17
2019-04-30T13:33:14.834Z,37.50
2019-04-30T13:35:43.587Z,36.65
2019-04-30T13:38:16.572Z,35.00
2019-04-30T13:40:52.480Z,34.97
2019-04-30T13:43:40.192Z,36.33
2019-04-30T13:46:09.132Z,37.67
2019-04-30T13:48:37.615Z,36.90
2019-04-30T13:51:06.150Z,35.08
2019-04-30T13:53:34.646Z,36.38
2019-04-30T13:56:05.035Z,34.85
2019-04-30T13:58:33.501Z,33.55
2019-04-30T14:01:02.067Z,36.13
2019-04-30T14:03:43.254Z,35.03
2019-04-30T14:06:12.629Z,37.85
2019-04-30T14:08:51.725Z,38.55
2019-04-30T14:11:20.273Z,38.90
2019-04-30T14:13:51.796Z,37.95
2019-04-30T14:16:22.507Z,37.80
2019-04-30T14:18:51.043Z,37.60
2019-04-30T14:21:32.265Z,37.85
2019-04-30T14:23:49.803Z,38.33
2019-04-30T14:26:19.384Z,37.40
2019-04-30T14:28:48.953Z,38.00
2019-04-30T14:31:18.710Z,40.43
2019-04-30T14:33:48.747Z,39.83
2019-04-30T14:36:19.276Z,40.58
2019-04-30T14:38:48.886Z,38.78
2019-04-30T14:41:18.143Z,40.25
2019-04-30T14:43:50.957Z,40.17
2019-04-30T14:46:26.649Z,40.08
2019-04-30T14:49:06.574Z,40.58
2019-04-30T14:51:36.102Z,41.68
2019-04-30T14:54:09.623Z,40.38
2019-04-30T14:56:49.386Z,42.98
2019-04-30T14:59:35.653Z,40.75
2019-04-30T15:02:19.465Z,41.85
2019-04-30T15:04:48.738Z,42.30
2019-04-30T15:07:19.375Z,41.33
2019-04-30T15:09:47.974Z,42.53
2019-04-30T15:12:16.501Z,40.23
2019-04-30T15:14:44.965Z,42.65
2019-04-30T15:17:13.512Z,44.85
2019-04-30T15:19:42.047Z,45.83
2019-04-30T15:22:10.534Z,40.67
2019-04-30T15:24:40.573Z,41.15
2019-04-30T15:27:09.457Z,39.58
2019-04-30T15:29:39.220Z,42.50
2019-04-30T15:32:08.745Z,39.38
2019-04-30T15:34:39.884Z,44.13
2019-04-30T15:37:18.753Z,41.08
2019-04-30T15:39:39.504Z,42.75
2019-04-30T15:42:09.009Z,43.70
2019-04-30T15:44:42.595Z,43.45
2019-04-30T15:47:09.611Z,44.15
2019-04-30T15:49:39.049Z,44.08
2019-04-30T15:52:08.953Z,42.40
2019-04-30T15:54:39.215Z,45.70
2019-04-30T15:57:08.902Z,43.83
2019-04-30T15:59:41.340Z,41.75
2019-04-30T16:02:11.596Z,43.70
2019-04-30T16:04:41.710Z,41.35
2019-04-30T16:07:10.281Z,41.77
2019-04-30T16:09:58.554Z,42.27
2019-04-30T16:12:34.438Z,40.15
2019-04-30T16:15:03.550Z,41.68
2019-04-30T16:17:32.392Z,42.83
2019-04-30T16:20:00.857Z,41.65
2019-04-30T16:22:31.365Z,40.92
2019-04-30T16:25:00.707Z,40.20
2019-04-30T16:27:29.333Z,41.90
2019-04-30T16:29:59.465Z,42.00
2019-04-30T16:32:28.186Z,43.92
2019-04-30T16:34:56.654Z,43.33
2019-04-30T16:37:25.128Z,44.40
2019-04-30T16:39:53.594Z,44.90
2019-04-30T16:42:22.060Z,45.58
2019-04-30T16:44:50.513Z,42.33
2019-04-30T16:47:19.865Z,44.83
2019-04-30T16:49:49.322Z,43.65
2019-04-30T16:52:19.048Z,44.50
2019-04-30T16:54:49.719Z,44.60
2019-04-30T16:57:18.263Z,45.83
2019-04-30T16:59:46.803Z,45.63
2019-04-30T17:02:15.499Z,46.00
2019-04-30T17:04:51.791Z,44.00
2019-04-30T17:07:22.371Z,46.80
2019-04-30T17:09:52.642Z,44.85
2019-04-30T17:12:38.672Z,45.23
2019-04-30T17:15:14.900Z,44.73
2019-04-30T17:17:44.854Z,44.05
2019-04-30T17:20:14.617Z,43.78
2019-04-30T17:22:43.091Z,42.73
2019-04-30T17:25:12.292Z,43.73
2019-04-30T17:27:40.816Z,43.13
2019-04-30T17:30:11.070Z,41.30
2019-04-30T17:32:39.833Z,41.85
2019-04-30T17:35:10.239Z,41.37
2019-04-30T17:37:38.861Z,39.40
2019-04-30T17:40:09.478Z,39.80
2019-04-30T17:42:38.206Z,39.13
2019-04-30T17:45:09.480Z,38.02
2019-04-30T17:47:38.441Z,39.18
2019-04-30T17:50:09.114Z,37.65
2019-04-30T17:52:37.879Z,38.90
2019-04-30T17:55:09.640Z,38.35
2019-04-30T17:57:40.295Z,38.88
2019-04-30T18:00:18.938Z,38.28
2019-04-30T18:02:42.056Z,38.78
2019-04-30T18:05:11.341Z,37.33
2019-04-30T18:07:40.052Z,37.08
2019-04-30T18:10:10.635Z,38.48
2019-04-30T18:12:39.265Z,35.88
2019-04-30T18:15:12.529Z,37.05
2019-04-30T18:17:42.183Z,37.50
2019-04-30T18:20:21.770Z,35.92
2019-04-30T18:23:08.243Z,35.95
2019-04-30T18:25:38.462Z,36.48
2019-04-30T18:28:09.171Z,36.85
2019-04-30T18:30:39.733Z,35.13
2019-04-30T18:33:09.844Z,35.83
2019-04-30T18:35:38.992Z,35.25
2019-04-30T18:38:09.633Z,36.80
2019-04-30T18:40:39.786Z,35.80
2019-04-30T18:43:08.549Z,36.48
2019-04-30T18:45:39.377Z,35.50
2019-04-30T18:48:09.546Z,35.73
2019-04-30T18:50:37.549Z,35.88
2019-04-30T18:53:08.677Z,36.55
2019-04-30T18:55:37.364Z,36.03
2019-04-30T18:58:06.003Z,36.38
2019-04-30T19:00:42.661Z,35.65
2019-04-30T19:03:11.949Z,36.30
2019-04-30T19:05:42.212Z,35.03
2019-04-30T19:08:15.451Z,36.15
2019-04-30T19:11:00.688Z,37.93
2019-04-30T19:13:30.925Z,35.95
2019-04-30T19:16:21.423Z,38.75
2019-04-30T19:18:48.036Z,38.08
2019-04-30T19:21:16.566Z,40.30
2019-04-30T19:23:45.444Z,38.15
2019-04-30T19:26:14.116Z,40.52
2019-04-30T19:28:42.752Z,37.45
2019-04-30T19:34:43.334Z,41.65
2019-04-30T19:37:11.896Z,40.48
2019-04-30T19:39:40.388Z,39.88
2019-04-30T19:42:09.110Z,42.10
2019-04-30T19:44:39.458Z,41.05
2019-04-30T19:47:09.288Z,38.08
2019-04-30T19:49:38.962Z,42.15
2019-04-30T19:52:09.525Z,41.77
2019-04-30T19:54:39.262Z,41.10
2019-04-30T19:57:10.133Z,39.58
2019-04-30T19:59:38.385Z,38.98
2019-04-30T20:02:06.987Z,39.75
2019-04-30T20:04:36.772Z,39.50
2019-04-30T20:07:05.672Z,38.65
2019-04-30T20:09:34.164Z,38.53
2019-04-30T20:12:02.658Z,39.80
2019-04-30T20:14:32.702Z,42.13
2019-04-30T20:17:01.370Z,39.25
2019-04-30T20:19:33.006Z,39.25
2019-04-30T20:22:01.554Z,41.18
2019-04-30T20:24:30.462Z,39.40
2019-04-30T20:27:06.994Z,38.60
2019-04-30T20:29:29.170Z,41.35
2019-04-30T20:31:58.958Z,39.60
2019-04-30T20:34:29.251Z,41.25
2019-04-30T20:36:58.589Z,40.73
2019-04-30T20:39:32.527Z,38.95
2019-04-30T20:42:01.022Z,42.27
2019-04-30T20:44:29.540Z,42.30
2019-04-30T20:46:59.109Z,41.83
2019-04-30T20:49:29.120Z,43.48
2019-04-30T20:51:58.979Z,41.55
2019-04-30T20:54:29.099Z,42.00
2019-04-30T20:56:58.980Z,42.95
2019-04-30T20:59:31.724Z,44.08
2019-04-30T21:02:00.227Z,44.40
2019-04-30T21:04:28.728Z,43.90
2019-04-30T21:06:59.356Z,41.92
2019-04-30T21:09:27.431Z,44.80
2019-04-30T21:11:56.014Z,46.92
2019-04-30T21:14:24.499Z,46.25
2019-04-30T21:16:53.051Z,46.92
2019-04-30T21:19:21.541Z,44.53
2019-04-30T21:21:50.088Z,45.88
2019-04-30T21:24:18.642Z,46.33
2019-04-30T21:26:47.222Z,47.17
2019-04-30T21:29:16.132Z,40.95
2019-04-30T21:31:52.455Z,42.70
2019-04-30T21:34:25.229Z,45.88
2019-04-30T21:36:53.847Z,44.98
2019-04-30T21:39:22.344Z,45.88
2019-04-30T21:41:50.822Z,48.13
2019-04-30T21:44:19.341Z,46.28
2019-04-30T21:46:47.907Z,47.30
2019-04-30T21:49:16.413Z,44.90
2019-04-30T21:51:44.891Z,46.73
2019-04-30T21:54:13.380Z,49.98
2019-04-30T21:56:41.871Z,49.33
2019-04-30T21:59:10.482Z,46.45
2019-04-30T22:01:39.068Z,49.58
2019-04-30T22:04:07.597Z,49.18
2019-04-30T22:06:36.473Z,49.55
2019-04-30T22:09:07.283Z,49.83
2019-04-30T22:11:35.800Z,50.55
2019-04-30T22:14:04.711Z,53.25
2019-04-30T22:16:33.323Z,49.25
2019-04-30T22:19:01.839Z,48.15
2019-04-30T22:21:30.535Z,51.40
2019-04-30T22:23:59.019Z,50.43
2019-04-30T22:26:27.507Z,51.28
2019-04-30T22:28:56.335Z,52.83
2019-04-30T22:31:24.878Z,53.73
2019-04-30T22:33:53.411Z,55.70
2019-04-30T22:36:30.221Z,50.98
2019-04-30T22:39:11.841Z,52.80
2019-04-30T22:41:39.841Z,53.05
2019-04-30T22:44:08.634Z,55.90
2019-04-30T22:46:39.233Z,55.65
2019-04-30T22:49:07.750Z,56.42
2019-04-30T22:51:36.310Z,56.42
2019-04-30T22:54:05.038Z,55.55
2019-04-30T22:56:33.655Z,57.05
2019-04-30T22:59:02.207Z,55.98
2019-04-30T23:01:48.610Z,58.33
2019-04-30T23:04:21.494Z,58.02
2019-04-30T23:06:49.999Z,55.55
2019-04-30T23:09:19.141Z,59.60
2019-04-30T23:11:47.622Z,60.20
2019-04-30T23:14:16.283Z,58.98
2019-04-30T23:16:44.806Z,59.18
2019-04-30T23:19:13.319Z,55.92
2019-04-30T23:21:41.910Z,56.55
2019-04-30T23:24:10.378Z,61.55
2019-04-30T23:26:38.968Z,60.20
2019-04-30T23:29:07.802Z,54.10
2019-04-30T23:31:36.330Z,59.98
2019-04-30T23:34:17.224Z,54.42
2019-04-30T23:36:35.222Z,58.92
2019-04-30T23:39:05.201Z,60.35
2019-04-30T23:41:33.707Z,56.28
2019-04-30T23:44:02.225Z,59.90
2019-04-30T23:46:30.706Z,58.25
2019-04-30T23:48:59.262Z,55.95
2019-04-30T23:51:28.010Z,58.90
2019-04-30T23:53:56.494Z,57.50
2019-04-30T23:56:24.979Z,61.08
2019-04-30T23:58:53.498Z,62.27
